Main page
METAR-TAF:

METAR-TAF

Airports :

Lübeck Airport

Lübeck, Germany

latitude: 53-49N, longitude: 010-42E, elevation: 14 m

Current weather observation

The report was made 3 hours and 22 minutes ago, at 18:50 UTC
Wind 6 kt from the Southwest, varying between South/Southwest and West
Temperature 6°C
Humidity 75%
Pressure 1015 hPa
Visibility 10 km or more
no clouds below 1500 m and no cumulonimbus

METAR: EDHL 011850Z 23006KT 210V280 CAVOK 06/02 Q1015

Time: 00:12 (22:12 UTC)

Forecast

The report was made 5 hours and 12 minutes ago, at 17:00 UTC
Forecast valid from 01 at 18 UTC to 01 at 21 UTC
Wind 7 kt from the West/Southwest
Visibility 10 km or more
Broken clouds at a height of 4000 ft

TAF: EDHL 011700Z 0118/0121 25007KT 9999 BKN040

Weather observations and forecasts of more than 4000 airports (METAR and TAF reports).

The available stations are represented by yellow and red dots on the map.

Hover mouse over dot to see the name of the station.

Then click to see weather observations and forecasts.

To change the map : click on the green buttons with a black cross to zoom in, on the green button with a dash to zoom out, or on the green arrows for adjacent maps.


METAR-TAF: